sensor_id;sensor_type;location;lat;lon;timestamp;P1;durP1;ratioP1;P2;durP2;ratioP2
71162;SDS011;58858;50.948;6.566;2023-07-20T00:04:46;8.30;;;2.85;;
71162;SDS011;58858;50.948;6.566;2023-07-20T00:14:47;5.03;;;2.17;;
71162;SDS011;58858;50.948;6.566;2023-07-20T00:25:08;3.45;;;2.05;;
71162;SDS011;58858;50.948;6.566;2023-07-20T00:35:09;5.97;;;2.08;;
71162;SDS011;58858;50.948;6.566;2023-07-20T00:45:11;5.63;;;1.75;;
71162;SDS011;58858;50.948;6.566;2023-07-20T00:55:21;2.35;;;1.50;;
71162;SDS011;58858;50.948;6.566;2023-07-20T01:05:27;2.05;;;1.50;;
71162;SDS011;58858;50.948;6.566;2023-07-20T01:16:02;2.90;;;2.00;;
71162;SDS011;58858;50.948;6.566;2023-07-20T01:26:27;6.40;;;2.08;;
71162;SDS011;58858;50.948;6.566;2023-07-20T01:36:34;3.70;;;2.10;;
71162;SDS011;58858;50.948;6.566;2023-07-20T01:46:36;6.22;;;2.58;;
71162;SDS011;58858;50.948;6.566;2023-07-20T01:56:40;4.20;;;2.95;;
71162;SDS011;58858;50.948;6.566;2023-07-20T02:06:46;7.90;;;3.80;;
71162;SDS011;58858;50.948;6.566;2023-07-20T02:16:47;5.85;;;2.72;;
71162;SDS011;58858;50.948;6.566;2023-07-20T02:26:55;7.53;;;2.72;;
71162;SDS011;58858;50.948;6.566;2023-07-20T02:36:57;4.10;;;2.67;;
71162;SDS011;58858;50.948;6.566;2023-07-20T02:47:21;7.38;;;2.30;;
71162;SDS011;58858;50.948;6.566;2023-07-20T02:57:22;6.53;;;2.60;;
71162;SDS011;58858;50.948;6.566;2023-07-20T03:07:23;5.53;;;2.30;;
71162;SDS011;58858;50.948;6.566;2023-07-20T03:17:42;4.50;;;2.63;;
71162;SDS011;58858;50.948;6.566;2023-07-20T03:39:28;6.35;;;3.35;;
71162;SDS011;58858;50.948;6.566;2023-07-20T03:49:29;6.55;;;3.40;;
71162;SDS011;58858;50.948;6.566;2023-07-20T03:59:30;7.05;;;3.03;;
71162;SDS011;58858;50.948;6.566;2023-07-20T04:09:32;5.22;;;2.97;;
71162;SDS011;58858;50.948;6.566;2023-07-20T04:19:33;7.93;;;3.70;;
71162;SDS011;58858;50.948;6.566;2023-07-20T04:29:34;7.63;;;3.63;;
71162;SDS011;58858;50.948;6.566;2023-07-20T04:39:36;6.85;;;3.30;;
71162;SDS011;58858;50.948;6.566;2023-07-20T04:49:42;8.52;;;4.13;;
71162;SDS011;58858;50.948;6.566;2023-07-20T04:59:43;8.75;;;4.63;;
71162;SDS011;58858;50.948;6.566;2023-07-20T05:09:45;6.75;;;4.70;;
71162;SDS011;58858;50.948;6.566;2023-07-20T05:19:46;9.57;;;4.65;;
71162;SDS011;58858;50.948;6.566;2023-07-20T05:29:47;12.57;;;5.43;;
71162;SDS011;58858;50.948;6.566;2023-07-20T05:39:48;14.43;;;5.72;;
71162;SDS011;58858;50.948;6.566;2023-07-20T05:49:49;8.07;;;6.05;;
71162;SDS011;58858;50.948;6.566;2023-07-20T05:59:50;10.65;;;6.40;;
71162;SDS011;58858;50.948;6.566;2023-07-20T06:09:52;12.25;;;8.75;;
71162;SDS011;58858;50.948;6.566;2023-07-20T06:19:53;11.50;;;7.70;;
71162;SDS011;58858;50.948;6.566;2023-07-20T06:29:54;10.82;;;7.25;;
71162;SDS011;58858;50.948;6.566;2023-07-20T06:39:55;10.93;;;7.75;;
71162;SDS011;58858;50.948;6.566;2023-07-20T06:49:57;10.63;;;8.30;;
71162;SDS011;58858;50.948;6.566;2023-07-20T06:59:59;8.63;;;6.25;;
71162;SDS011;58858;50.948;6.566;2023-07-20T07:10:00;9.95;;;5.53;;
71162;SDS011;58858;50.948;6.566;2023-07-20T07:20:05;25.30;;;6.82;;
71162;SDS011;58858;50.948;6.566;2023-07-20T07:30:08;6.30;;;5.07;;
71162;SDS011;58858;50.948;6.566;2023-07-20T07:40:09;9.48;;;5.15;;
71162;SDS011;58858;50.948;6.566;2023-07-20T07:50:11;7.53;;;4.40;;
71162;SDS011;58858;50.948;6.566;2023-07-20T08:00:12;5.63;;;3.58;;
71162;SDS011;58858;50.948;6.566;2023-07-20T08:10:15;5.20;;;3.22;;
71162;SDS011;58858;50.948;6.566;2023-07-20T08:20:16;3.67;;;3.08;;
71162;SDS011;58858;50.948;6.566;2023-07-20T08:30:20;5.15;;;3.58;;
71162;SDS011;58858;50.948;6.566;2023-07-20T08:40:25;4.28;;;3.05;;
71162;SDS011;58858;50.948;6.566;2023-07-20T08:50:26;3.78;;;3.03;;
71162;SDS011;58858;50.948;6.566;2023-07-20T09:00:30;6.88;;;2.53;;
71162;SDS011;58858;50.948;6.566;2023-07-20T09:10:31;5.47;;;2.80;;
71162;SDS011;58858;50.948;6.566;2023-07-20T09:20:41;3.05;;;2.20;;
71162;SDS011;58858;50.948;6.566;2023-07-20T09:30:43;3.60;;;2.03;;
71162;SDS011;58858;50.948;6.566;2023-07-20T09:40:45;3.53;;;1.88;;
71162;SDS011;58858;50.948;6.566;2023-07-20T09:50:50;2.10;;;1.50;;
71162;SDS011;58858;50.948;6.566;2023-07-20T10:00:52;2.38;;;1.70;;
71162;SDS011;58858;50.948;6.566;2023-07-20T10:10:59;1.40;;;0.93;;
71162;SDS011;58858;50.948;6.566;2023-07-20T10:21:03;10.68;;;1.35;;
71162;SDS011;58858;50.948;6.566;2023-07-20T10:31:12;3.63;;;1.40;;
71162;SDS011;58858;50.948;6.566;2023-07-20T10:51:40;1.55;;;0.77;;
71162;SDS011;58858;50.948;6.566;2023-07-20T11:01:42;6.20;;;2.40;;
71162;SDS011;58858;50.948;6.566;2023-07-20T11:11:46;3.30;;;0.93;;
71162;SDS011;58858;50.948;6.566;2023-07-20T11:22:06;2.35;;;1.15;;
71162;SDS011;58858;50.948;6.566;2023-07-20T11:32:11;3.60;;;0.90;;
71162;SDS011;58858;50.948;6.566;2023-07-20T11:42:47;1.77;;;1.00;;
71162;SDS011;58858;50.948;6.566;2023-07-20T11:52:53;0.95;;;0.90;;
71162;SDS011;58858;50.948;6.566;2023-07-20T12:02:55;1.05;;;0.88;;
71162;SDS011;58858;50.948;6.566;2023-07-20T12:13:02;1.67;;;1.03;;
71162;SDS011;58858;50.948;6.566;2023-07-20T12:23:13;1.95;;;1.05;;
71162;SDS011;58858;50.948;6.566;2023-07-20T12:33:14;1.73;;;1.15;;
71162;SDS011;58858;50.948;6.566;2023-07-20T12:43:16;1.10;;;1.00;;
71162;SDS011;58858;50.948;6.566;2023-07-20T12:53:17;1.77;;;1.10;;
71162;SDS011;58858;50.948;6.566;2023-07-20T13:03:19;2.35;;;1.90;;
71162;SDS011;58858;50.948;6.566;2023-07-20T13:13:20;3.28;;;1.00;;
71162;SDS011;58858;50.948;6.566;2023-07-20T13:23:21;2.72;;;1.40;;
71162;SDS011;58858;50.948;6.566;2023-07-20T13:33:22;2.30;;;0.85;;
71162;SDS011;58858;50.948;6.566;2023-07-20T13:43:23;2.53;;;0.93;;
71162;SDS011;58858;50.948;6.566;2023-07-20T13:53:24;5.53;;;1.40;;
71162;SDS011;58858;50.948;6.566;2023-07-20T14:03:25;2.33;;;1.25;;
71162;SDS011;58858;50.948;6.566;2023-07-20T14:13:26;2.05;;;1.33;;
71162;SDS011;58858;50.948;6.566;2023-07-20T14:23:27;3.63;;;1.38;;
71162;SDS011;58858;50.948;6.566;2023-07-20T14:33:28;13.48;;;1.75;;
71162;SDS011;58858;50.948;6.566;2023-07-20T14:43:30;2.85;;;1.23;;
71162;SDS011;58858;50.948;6.566;2023-07-20T14:53:31;5.38;;;1.48;;
71162;SDS011;58858;50.948;6.566;2023-07-20T15:03:32;1.67;;;1.20;;
71162;SDS011;58858;50.948;6.566;2023-07-20T15:13:33;2.47;;;1.80;;
71162;SDS011;58858;50.948;6.566;2023-07-20T15:23:34;1.90;;;1.30;;
71162;SDS011;58858;50.948;6.566;2023-07-20T15:33:35;4.25;;;0.80;;
71162;SDS011;58858;50.948;6.566;2023-07-20T15:43:37;2.10;;;1.10;;
71162;SDS011;58858;50.948;6.566;2023-07-20T15:53:38;2.88;;;0.93;;
71162;SDS011;58858;50.948;6.566;2023-07-20T16:03:39;2.50;;;1.05;;
71162;SDS011;58858;50.948;6.566;2023-07-20T16:13:41;1.95;;;0.90;;
71162;SDS011;58858;50.948;6.566;2023-07-20T16:23:42;0.88;;;0.85;;
71162;SDS011;58858;50.948;6.566;2023-07-20T16:33:43;4.63;;;1.25;;
71162;SDS011;58858;50.948;6.566;2023-07-20T16:43:45;3.00;;;0.70;;
71162;SDS011;58858;50.948;6.566;2023-07-20T16:53:46;2.28;;;0.80;;
71162;SDS011;58858;50.948;6.566;2023-07-20T17:03:47;5.25;;;0.93;;
71162;SDS011;58858;50.948;6.566;2023-07-20T17:13:50;2.35;;;1.02;;
71162;SDS011;58858;50.948;6.566;2023-07-20T17:23:51;6.90;;;1.17;;
71162;SDS011;58858;50.948;6.566;2023-07-20T17:33:54;5.57;;;1.75;;
71162;SDS011;58858;50.948;6.566;2023-07-20T17:44:03;23.55;;;2.60;;
71162;SDS011;58858;50.948;6.566;2023-07-20T17:54:06;20.75;;;3.25;;
71162;SDS011;58858;50.948;6.566;2023-07-20T18:04:09;23.88;;;2.70;;
71162;SDS011;58858;50.948;6.566;2023-07-20T18:14:10;1.10;;;1.00;;
71162;SDS011;58858;50.948;6.566;2023-07-20T18:24:11;1.67;;;0.70;;
71162;SDS011;58858;50.948;6.566;2023-07-20T18:34:32;6.07;;;1.38;;
71162;SDS011;58858;50.948;6.566;2023-07-20T18:45:08;12.27;;;1.63;;
71162;SDS011;58858;50.948;6.566;2023-07-20T18:55:45;14.98;;;2.90;;
71162;SDS011;58858;50.948;6.566;2023-07-20T19:05:49;19.33;;;2.25;;
71162;SDS011;58858;50.948;6.566;2023-07-20T19:15:50;13.90;;;2.57;;
71162;SDS011;58858;50.948;6.566;2023-07-20T19:25:52;33.80;;;2.30;;
71162;SDS011;58858;50.948;6.566;2023-07-20T19:35:54;5.68;;;1.10;;
71162;SDS011;58858;50.948;6.566;2023-07-20T19:45:56;9.57;;;2.63;;
71162;SDS011;58858;50.948;6.566;2023-07-20T19:55:58;8.82;;;1.25;;
71162;SDS011;58858;50.948;6.566;2023-07-20T20:06:00;9.27;;;1.38;;
71162;SDS011;58858;50.948;6.566;2023-07-20T20:16:03;6.68;;;1.95;;
71162;SDS011;58858;50.948;6.566;2023-07-20T20:26:04;6.20;;;3.25;;
71162;SDS011;58858;50.948;6.566;2023-07-20T20:36:07;6.60;;;4.53;;
71162;SDS011;58858;50.948;6.566;2023-07-20T20:46:08;7.35;;;6.25;;
71162;SDS011;58858;50.948;6.566;2023-07-20T20:56:13;6.60;;;5.88;;
71162;SDS011;58858;50.948;6.566;2023-07-20T21:06:15;8.13;;;6.80;;
71162;SDS011;58858;50.948;6.566;2023-07-20T21:16:17;7.78;;;6.97;;
71162;SDS011;58858;50.948;6.566;2023-07-20T21:26:18;5.50;;;4.47;;
71162;SDS011;58858;50.948;6.566;2023-07-20T21:36:19;4.35;;;3.83;;
71162;SDS011;58858;50.948;6.566;2023-07-20T21:46:21;4.70;;;4.20;;
71162;SDS011;58858;50.948;6.566;2023-07-20T21:56:22;8.07;;;5.82;;
71162;SDS011;58858;50.948;6.566;2023-07-20T22:06:23;10.55;;;5.13;;
71162;SDS011;58858;50.948;6.566;2023-07-20T22:16:24;5.55;;;4.38;;
71162;SDS011;58858;50.948;6.566;2023-07-20T22:26:25;4.88;;;4.35;;
71162;SDS011;58858;50.948;6.566;2023-07-20T22:36:26;7.47;;;4.50;;
71162;SDS011;58858;50.948;6.566;2023-07-20T22:46:27;6.43;;;5.35;;
71162;SDS011;58858;50.948;6.566;2023-07-20T22:56:28;5.55;;;4.00;;
71162;SDS011;58858;50.948;6.566;2023-07-20T23:06:29;4.97;;;4.22;;
71162;SDS011;58858;50.948;6.566;2023-07-20T23:16:31;4.68;;;3.72;;
71162;SDS011;58858;50.948;6.566;2023-07-20T23:26:32;6.00;;;3.85;;
71162;SDS011;58858;50.948;6.566;2023-07-20T23:36:33;6.75;;;5.10;;
71162;SDS011;58858;50.948;6.566;2023-07-20T23:46:34;4.82;;;4.30;;
71162;SDS011;58858;50.948;6.566;2023-07-20T23:56:35;5.15;;;3.20;;
